createdAt,value
2016-08-22T00:00:10.847Z,13.41
2016-08-22T00:01:10.836Z,13.42
2016-08-22T00:02:10.835Z,13.39
2016-08-22T00:03:10.829Z,13.39
2016-08-22T00:04:10.831Z,13.44
2016-08-22T00:05:10.823Z,13.33
2016-08-22T00:06:10.822Z,13.36
2016-08-22T00:07:10.823Z,13.3
2016-08-22T00:08:10.813Z,13.3
2016-08-22T00:09:10.803Z,13.23
2016-08-22T00:10:10.801Z,13.32
2016-08-22T00:11:10.803Z,13.23
2016-08-22T00:13:25.703Z,13.38
2016-08-22T00:14:11.798Z,13.42
2016-08-22T00:15:10.784Z,13.36
2016-08-22T00:16:14.212Z,13.3
2016-08-22T00:17:10.768Z,13.36
2016-08-22T00:18:10.764Z,13.22
2016-08-22T00:19:10.766Z,13.28
2016-08-22T00:20:10.755Z,13.23
2016-08-22T00:21:12.800Z,13.23
2016-08-22T00:23:11.745Z,13.22
2016-08-22T00:24:25.648Z,13.2
2016-08-22T00:25:25.649Z,13.22
2016-08-22T00:26:10.727Z,13.15
2016-08-22T00:27:10.727Z,13.08
2016-08-22T00:28:10.720Z,13.11
2016-08-22T00:29:10.710Z,13.12
2016-08-22T00:30:10.707Z,13.17
2016-08-22T00:31:10.710Z,13.17
2016-08-22T00:32:10.699Z,13.04
2016-08-22T00:33:10.695Z,13.2
2016-08-22T00:34:11.340Z,13.15
2016-08-22T00:36:12.121Z,13.14
2016-08-22T00:37:12.532Z,13.17
2016-08-22T00:38:11.572Z,13.11
2016-08-22T00:39:10.671Z,13.1
2016-08-22T00:40:10.929Z,13.07
2016-08-22T00:41:10.775Z,13.14
2016-08-22T00:42:10.659Z,13.12
2016-08-22T00:43:11.510Z,13.11
2016-08-22T00:44:12.248Z,13.04
2016-08-22T00:45:10.981Z,13.05
2016-08-22T00:46:11.566Z,13.01
2016-08-22T00:47:10.913Z,13.04
2016-08-22T00:48:10.629Z,13.07
2016-08-22T00:49:10.744Z,12.97
2016-08-22T00:50:10.760Z,13.04
2016-08-22T00:51:10.610Z,13.01
2016-08-22T00:52:10.611Z,13.14
2016-08-22T00:53:10.605Z,13.03
2016-08-22T00:54:10.594Z,13.03
2016-08-22T00:55:10.589Z,13.01
2016-08-22T00:56:10.588Z,13.03
2016-08-22T00:57:10.584Z,13.03
2016-08-22T00:58:10.583Z,13.03
2016-08-22T00:59:10.579Z,13.01
2016-08-22T01:00:10.672Z,13.03
2016-08-22T01:01:10.568Z,13.01
2016-08-22T01:02:10.562Z,12.92
2016-08-22T01:03:10.554Z,13.03
2016-08-22T01:04:10.554Z,13
2016-08-22T01:05:10.546Z,13
2016-08-22T01:06:10.550Z,12.93
2016-08-22T01:07:10.544Z,13
2016-08-22T01:08:10.534Z,12.95
2016-08-22T01:09:10.530Z,12.85
2016-08-22T01:10:10.523Z,12.9
2016-08-22T01:11:10.523Z,12.86
2016-08-22T01:12:10.511Z,12.79
2016-08-22T01:13:10.511Z,12.83
2016-08-22T01:14:10.508Z,12.82
2016-08-22T01:15:10.502Z,12.89
2016-08-22T01:16:10.499Z,12.82
2016-08-22T01:17:10.494Z,12.78
2016-08-22T01:18:10.488Z,12.74
2016-08-22T01:19:10.485Z,12.92
2016-08-22T01:20:10.482Z,12.77
2016-08-22T01:21:10.468Z,12.72
2016-08-22T01:22:10.463Z,12.72
2016-08-22T01:23:10.459Z,12.78
2016-08-22T01:24:10.455Z,12.75
2016-08-22T01:25:10.457Z,12.75
2016-08-22T01:26:11.152Z,12.74
2016-08-22T01:27:10.445Z,12.77
2016-08-22T01:28:10.435Z,12.68
2016-08-22T01:29:10.427Z,12.72
2016-08-22T01:30:11.032Z,12.74
2016-08-22T01:31:11.025Z,12.75
2016-08-22T01:32:11.224Z,12.72
2016-08-22T01:33:11.269Z,12.74
2016-08-22T01:34:10.909Z,12.72
2016-08-22T01:35:10.397Z,12.68
2016-08-22T01:36:10.400Z,12.72
2016-08-22T01:37:10.394Z,12.7
2016-08-22T01:38:10.387Z,12.71
2016-08-22T01:39:12.785Z,12.72
2016-08-22T01:40:25.300Z,12.62
2016-08-22T01:41:10.734Z,12.68
2016-08-22T01:42:11.084Z,12.64
2016-08-22T01:43:10.924Z,12.7
2016-08-22T01:44:10.375Z,12.68
2016-08-22T01:45:10.358Z,12.7
2016-08-22T01:46:10.354Z,12.67
2016-08-22T01:47:10.401Z,12.71
2016-08-22T01:48:10.341Z,12.65
2016-08-22T01:49:10.335Z,12.7
2016-08-22T01:50:10.333Z,12.67
2016-08-22T01:51:10.328Z,12.59
2016-08-22T01:52:12.649Z,12.68
2016-08-22T01:54:12.535Z,12.65
2016-08-22T01:55:10.309Z,12.67
2016-08-22T01:56:10.314Z,12.68
2016-08-22T01:57:10.300Z,12.7
2016-08-22T01:58:10.294Z,12.71
2016-08-22T01:59:10.290Z,12.68
2016-08-22T02:00:10.282Z,12.7
2016-08-22T02:01:10.282Z,12.68
2016-08-22T02:02:11.784Z,12.68
2016-08-22T02:03:10.941Z,12.67
2016-08-22T02:04:11.960Z,12.67
2016-08-22T02:05:10.257Z,12.65
2016-08-22T02:06:10.988Z,12.64
2016-08-22T02:07:10.248Z,12.6
2016-08-22T02:08:10.242Z,12.6
2016-08-22T02:09:10.239Z,12.68
2016-08-22T02:10:10.237Z,12.59
2016-08-22T02:11:10.226Z,12.6
2016-08-22T02:12:10.223Z,12.6
2016-08-22T02:13:10.225Z,12.62
2016-08-22T02:14:10.214Z,12.65
2016-08-22T02:15:10.209Z,12.6
2016-08-22T02:16:10.204Z,12.65
2016-08-22T02:17:10.893Z,12.6
2016-08-22T02:18:10.200Z,12.6
2016-08-22T02:19:10.187Z,12.6
2016-08-22T02:20:10.188Z,12.56
2016-08-22T02:21:10.182Z,12.6
2016-08-22T02:22:10.178Z,12.6
2016-08-22T02:23:10.166Z,12.57
2016-08-22T02:24:10.162Z,12.54
2016-08-22T02:25:10.155Z,12.53
2016-08-22T02:26:10.158Z,12.57
2016-08-22T02:27:10.145Z,12.57
2016-08-22T02:28:10.142Z,12.56
2016-08-22T02:29:10.133Z,12.59
2016-08-22T02:30:10.136Z,12.56
2016-08-22T02:31:10.133Z,12.56
2016-08-22T02:32:10.132Z,12.53
2016-08-22T02:33:10.115Z,12.52
2016-08-22T02:34:10.111Z,12.54
2016-08-22T02:35:10.109Z,12.49
2016-08-22T02:36:10.105Z,12.49
2016-08-22T02:37:10.099Z,12.46
2016-08-22T02:38:10.097Z,12.49
2016-08-22T02:39:10.087Z,12.46
2016-08-22T02:40:10.084Z,12.47
2016-08-22T02:41:10.083Z,12.47
2016-08-22T02:42:10.072Z,12.47
2016-08-22T02:43:10.069Z,12.46
2016-08-22T02:44:10.060Z,12.42
2016-08-22T02:45:10.059Z,12.46
2016-08-22T02:46:10.047Z,12.46
2016-08-22T02:47:10.052Z,12.46
2016-08-22T02:48:11.044Z,12.46
2016-08-22T02:50:10.035Z,12.42
2016-08-22T02:51:10.278Z,12.32
2016-08-22T02:52:10.024Z,12.46
2016-08-22T02:53:10.816Z,12.49
2016-08-22T02:54:10.009Z,12.46
2016-08-22T02:55:10.006Z,12.38
2016-08-22T02:56:10.003Z,12.42
2016-08-22T02:57:12.249Z,12.38
2016-08-22T02:58:10.843Z,12.46
2016-08-22T02:59:25.552Z,12.38
2016-08-22T03:00:10.139Z,12.39
2016-08-22T03:01:11.679Z,12.34
2016-08-22T03:02:10.571Z,12.41
2016-08-22T03:03:09.966Z,12.35
2016-08-22T03:04:09.960Z,12.39
2016-08-22T03:05:09.959Z,12.39
2016-08-22T03:06:10.652Z,12.42
2016-08-22T03:07:09.956Z,12.46
2016-08-22T03:08:09.938Z,12.46
2016-08-22T03:09:09.939Z,12.54
2016-08-22T03:10:09.929Z,12.56
2016-08-22T03:12:11.031Z,12.64
2016-08-22T03:13:12.206Z,12.7
2016-08-22T03:14:09.988Z,12.72
2016-08-22T03:15:09.908Z,12.68
2016-08-22T03:16:09.903Z,12.7
2016-08-22T03:17:09.901Z,12.7
2016-08-22T03:18:09.893Z,12.71
2016-08-22T03:19:09.885Z,12.72
2016-08-22T03:20:11.372Z,12.65
2016-08-22T03:21:11.350Z,12.72
2016-08-22T03:22:10.930Z,12.74
2016-08-22T03:23:09.875Z,12.72
2016-08-22T03:24:09.862Z,12.75
2016-08-22T03:25:10.530Z,12.72
2016-08-22T03:26:09.849Z,12.72
2016-08-22T03:27:09.855Z,12.74
2016-08-22T03:28:09.840Z,12.67
2016-08-22T03:29:09.835Z,12.68
2016-08-22T03:30:09.830Z,12.74
2016-08-22T03:31:09.827Z,12.65
2016-08-22T03:32:09.818Z,12.7
2016-08-22T03:33:09.819Z,12.68
2016-08-22T03:34:09.810Z,12.71
2016-08-22T03:35:09.814Z,12.67
2016-08-22T03:36:09.803Z,12.74
2016-08-22T03:37:09.793Z,12.78
2016-08-22T03:38:09.805Z,12.77
2016-08-22T03:39:09.793Z,12.83
2016-08-22T03:40:09.780Z,12.95
2016-08-22T03:41:09.777Z,13.03
2016-08-22T03:42:09.776Z,13.08
2016-08-22T03:43:09.761Z,13.08
2016-08-22T03:44:09.765Z,13.22
2016-08-22T03:45:09.772Z,13.25
2016-08-22T03:46:09.763Z,13.19
2016-08-22T03:47:10.439Z,13.3
2016-08-22T03:48:09.745Z,13.36
2016-08-22T03:49:09.738Z,13.42
2016-08-22T03:50:09.731Z,13.39
2016-08-22T03:51:09.735Z,13.41
2016-08-22T03:52:09.720Z,13.36
2016-08-22T03:53:09.721Z,13.41
2016-08-22T03:54:09.710Z,13.38
2016-08-22T03:55:09.713Z,13.36
2016-08-22T03:56:09.704Z,13.3
2016-08-22T03:57:09.695Z,13.36
2016-08-22T03:58:09.695Z,13.26
2016-08-22T03:59:09.684Z,13.38
2016-08-22T04:00:09.684Z,13.33
2016-08-22T04:01:09.682Z,13.41
2016-08-22T04:02:09.676Z,13.41
2016-08-22T04:03:09.667Z,13.51
2016-08-22T04:04:09.666Z,13.57
2016-08-22T04:05:09.666Z,13.52
2016-08-22T04:06:10.558Z,13.63
2016-08-22T04:07:10.203Z,13.67
2016-08-22T04:08:10.298Z,13.78
2016-08-22T04:10:10.292Z,13.89
2016-08-22T04:11:09.645Z,13.96
2016-08-22T04:12:09.928Z,14.06
2016-08-22T04:13:09.626Z,14.15
2016-08-22T04:14:09.624Z,14.14
2016-08-22T04:15:09.614Z,14.2
2016-08-22T04:16:09.864Z,14.18
2016-08-22T04:17:09.903Z,14.32
2016-08-22T04:18:10.101Z,14.25
2016-08-22T04:19:09.749Z,14.39
2016-08-22T04:20:09.595Z,14.36
2016-08-22T04:21:10.044Z,14.47
2016-08-22T04:22:09.598Z,14.58
2016-08-22T04:23:09.583Z,14.51
2016-08-22T04:24:09.574Z,14.65
2016-08-22T04:25:09.576Z,14.64
2016-08-22T04:26:09.576Z,14.7
2016-08-22T04:27:09.569Z,14.75
2016-08-22T04:28:09.561Z,14.81
2016-08-22T04:29:09.559Z,14.86
2016-08-22T04:30:09.551Z,14.86
2016-08-22T04:31:09.544Z,14.88
2016-08-22T04:32:09.547Z,14.95
2016-08-22T04:33:09.539Z,15.06
2016-08-22T04:34:09.539Z,15.06
2016-08-22T04:35:09.537Z,15.14
2016-08-22T04:36:09.533Z,15.17
2016-08-22T04:37:09.523Z,15.29
2016-08-22T04:38:09.524Z,15.27
2016-08-22T04:39:09.520Z,15.31
2016-08-22T04:40:09.512Z,15.38
2016-08-22T04:41:09.515Z,15.32
2016-08-22T04:42:09.510Z,15.46
2016-08-22T04:43:09.504Z,15.46
2016-08-22T04:44:09.501Z,15.47
2016-08-22T04:45:09.496Z,15.54
2016-08-22T04:46:09.491Z,15.53
2016-08-22T04:47:09.496Z,15.56
2016-08-22T04:48:09.490Z,15.67
2016-08-22T04:49:09.481Z,15.67
2016-08-22T04:50:09.494Z,15.72
2016-08-22T04:51:09.479Z,15.74
2016-08-22T04:52:09.476Z,15.84
2016-08-22T04:53:09.476Z,15.89
2016-08-22T04:54:09.472Z,15.94
2016-08-22T04:55:09.460Z,15.96
2016-08-22T04:56:09.463Z,16.07
2016-08-22T04:57:09.452Z,16
2016-08-22T04:58:09.452Z,16
2016-08-22T04:59:09.451Z,16.08
2016-08-22T05:00:09.455Z,16.12
2016-08-22T05:01:09.446Z,16.17
2016-08-22T05:02:09.442Z,16.28
2016-08-22T05:03:09.441Z,16.34
2016-08-22T05:04:09.439Z,16.34
2016-08-22T05:05:09.427Z,16.34
2016-08-22T05:06:09.433Z,16.43
2016-08-22T05:07:09.432Z,16.45
2016-08-22T05:08:09.423Z,16.49
2016-08-22T05:09:09.417Z,16.52
2016-08-22T05:10:09.416Z,16.6
2016-08-22T05:11:09.412Z,16.53
2016-08-22T05:12:09.416Z,16.53
2016-08-22T05:13:09.409Z,16.61
2016-08-22T05:14:09.418Z,16.66
2016-08-22T05:15:09.408Z,16.73
2016-08-22T05:16:09.399Z,16.73
2016-08-22T05:17:09.396Z,16.71
2016-08-22T05:18:09.402Z,16.73
2016-08-22T05:19:09.394Z,16.76
2016-08-22T05:20:09.388Z,16.91
2016-08-22T05:21:09.386Z,16.85
2016-08-22T05:22:09.387Z,16.91
2016-08-22T05:23:09.380Z,16.89
2016-08-22T05:24:09.381Z,16.88
2016-08-22T05:25:10.073Z,16.93
2016-08-22T05:27:09.820Z,17.03
2016-08-22T05:28:09.527Z,17.12
2016-08-22T05:30:11.287Z,17.15
2016-08-22T05:31:10.073Z,17.07
2016-08-22T05:32:09.358Z,17.19
2016-08-22T05:33:09.409Z,17.25
2016-08-22T05:36:24.566Z,17.63
2016-08-22T05:37:09.503Z,17.75
2016-08-22T05:38:10.875Z,17.9
2016-08-22T05:39:10.424Z,17.96
2016-08-22T05:40:09.349Z,18.17
2016-08-22T05:41:11.284Z,18.2
2016-08-22T05:42:09.339Z,18.23
2016-08-22T05:43:09.341Z,18.37
2016-08-22T05:44:09.335Z,18.5
2016-08-22T05:45:09.333Z,18.52
2016-08-22T05:46:09.329Z,18.55
2016-08-22T05:47:09.331Z,18.67
2016-08-22T05:48:09.328Z,18.8
2016-08-22T05:49:09.337Z,18.87
2016-08-22T05:50:09.335Z,18.81
2016-08-22T05:51:09.334Z,18.95
2016-08-22T05:52:09.335Z,18.92
2016-08-22T05:53:09.327Z,19.02
2016-08-22T05:54:09.320Z,19.29
2016-08-22T05:55:09.325Z,19.47
2016-08-22T05:56:09.332Z,19.56
2016-08-22T05:57:09.326Z,19.86
2016-08-22T05:58:09.323Z,20.02
2016-08-22T05:59:09.327Z,20.23
2016-08-22T06:00:09.326Z,20.64
2016-08-22T06:01:09.323Z,20.94
2016-08-22T06:02:09.322Z,21.19
2016-08-22T06:03:09.321Z,21.61
2016-08-22T06:04:09.323Z,21.92
2016-08-22T06:05:09.334Z,22.3
2016-08-22T06:06:09.343Z,22.7
2016-08-22T06:07:09.337Z,23.02
2016-08-22T06:08:09.334Z,23.46
2016-08-22T06:09:09.346Z,23.83
2016-08-22T06:10:09.344Z,24.16
2016-08-22T06:11:09.357Z,24.47
2016-08-22T06:12:09.354Z,24.76
2016-08-22T06:13:09.356Z,24.99
2016-08-22T06:14:09.370Z,25.27
2016-08-22T06:15:09.372Z,25.5
2016-08-22T06:16:10.069Z,25.69
2016-08-22T06:17:09.382Z,25.88
2016-08-22T06:18:09.398Z,26.09
2016-08-22T06:19:09.398Z,26.25
2016-08-22T06:20:09.404Z,26.37
2016-08-22T06:21:09.416Z,26.58
2016-08-22T06:22:09.417Z,26.7
2016-08-22T06:23:09.429Z,26.94
2016-08-22T06:24:09.435Z,27.17
2016-08-22T06:25:09.438Z,27.43
2016-08-22T06:26:09.448Z,27.7
2016-08-22T06:27:09.462Z,28.02
2016-08-22T06:28:09.468Z,28.12
2016-08-22T06:29:09.476Z,28.15
2016-08-22T06:30:09.487Z,28.27
2016-08-22T06:32:09.502Z,28.68
2016-08-22T06:33:09.528Z,28.88
2016-08-22T06:34:09.529Z,28.93
2016-08-22T06:35:09.535Z,28.9
2016-08-22T06:36:09.551Z,28.92
2016-08-22T06:37:09.556Z,28.92
2016-08-22T06:38:09.568Z,28.92
2016-08-22T06:39:10.273Z,29.02
2016-08-22T06:40:09.586Z,29.11
2016-08-22T06:41:09.598Z,29.14
2016-08-22T06:42:09.610Z,29.06
2016-08-22T06:44:24.892Z,29.06
2016-08-22T06:45:10.386Z,29.06
2016-08-22T06:46:24.566Z,29.19
2016-08-22T06:49:09.861Z,29.26
2016-08-22T06:50:09.682Z,29.27
2016-08-22T06:51:09.982Z,29.21
2016-08-22T06:52:10.706Z,29.09
2016-08-22T06:54:10.421Z,28.64
2016-08-22T06:55:09.735Z,28.41
2016-08-22T06:56:11.286Z,28.09
2016-08-22T06:57:12.469Z,27.99
2016-08-22T06:58:09.923Z,27.67
2016-08-22T06:59:09.769Z,27.51
2016-08-22T07:00:10.225Z,27.31
2016-08-22T07:01:10.218Z,27.17
2016-08-22T07:02:09.789Z,26.91
2016-08-22T07:03:09.795Z,26.63
2016-08-22T07:04:09.806Z,26.58
2016-08-22T07:05:09.811Z,26.32
2016-08-22T07:06:09.817Z,26.06
2016-08-22T07:07:09.832Z,25.85
2016-08-22T07:08:09.832Z,25.62
2016-08-22T07:09:09.845Z,25.21
2016-08-22T07:10:09.846Z,24.83
2016-08-22T07:11:09.858Z,24.57
2016-08-22T07:12:09.860Z,24.47
2016-08-22T07:13:09.868Z,24.46
2016-08-22T07:14:09.875Z,24.55
2016-08-22T07:15:09.885Z,24.6
2016-08-22T07:16:09.885Z,24.68
2016-08-22T07:17:09.897Z,24.78
2016-08-22T07:18:09.898Z,24.91
2016-08-22T07:19:09.914Z,25.13
2016-08-22T07:20:09.914Z,25.54
2016-08-22T07:21:09.914Z,25.95
2016-08-22T07:22:09.925Z,26.3
2016-08-22T07:23:09.932Z,26.81
2016-08-22T07:24:09.944Z,27.03
2016-08-22T07:25:09.942Z,27.41
2016-08-22T07:26:09.958Z,27.88
2016-08-22T07:27:16.930Z,28.33
2016-08-22T07:28:09.971Z,28.55
2016-08-22T07:29:09.984Z,28.86
2016-08-22T07:30:10.001Z,29.11
2016-08-22T07:31:10.007Z,29.26
2016-08-22T07:32:10.019Z,29.3
2016-08-22T07:33:10.030Z,29.31
2016-08-22T07:34:10.033Z,29.33
2016-08-22T07:35:10.046Z,29.21
2016-08-22T07:36:10.056Z,29.16
2016-08-22T07:37:10.068Z,29.05
2016-08-22T07:38:10.071Z,29.11
2016-08-22T07:39:10.078Z,29.02
2016-08-22T07:40:10.101Z,28.88
2016-08-22T07:41:10.097Z,28.46
2016-08-22T07:42:10.131Z,28.4
2016-08-22T07:43:10.128Z,28.4
2016-08-22T07:44:10.135Z,28.46
2016-08-22T07:45:10.145Z,28.43
2016-08-22T07:46:10.157Z,28.58
2016-08-22T07:47:10.164Z,28.8
2016-08-22T07:48:10.178Z,28.92
2016-08-22T07:49:10.187Z,29.05
2016-08-22T07:51:17.163Z,29.8
2016-08-22T07:52:10.216Z,30.11
2016-08-22T07:53:10.232Z,30.51
2016-08-22T07:54:10.252Z,30.94
2016-08-22T07:55:10.257Z,31.25
2016-08-22T07:56:10.273Z,31.39
2016-08-22T07:57:10.279Z,31.47
2016-08-22T07:58:10.293Z,31.31
2016-08-22T07:59:10.308Z,31.06
2016-08-22T08:00:10.324Z,30.95
2016-08-22T08:01:26.096Z,30.8
2016-08-22T08:02:10.340Z,30.77
2016-08-22T08:03:10.356Z,30.57
2016-08-22T08:04:10.970Z,30.46
2016-08-22T08:06:11.122Z,30.35
2016-08-22T08:07:12.297Z,30.31
2016-08-22T08:08:11.769Z,30.38
2016-08-22T08:09:10.430Z,30.46
2016-08-22T08:10:26.014Z,30.64
2016-08-22T08:11:10.446Z,30.61
2016-08-22T08:12:10.710Z,30.84
2016-08-22T08:13:11.070Z,30.97
2016-08-22T08:15:12.065Z,31.17
2016-08-22T08:16:11.827Z,31.17
2016-08-22T08:17:11.533Z,31.04
2016-08-22T08:18:10.548Z,31.1
2016-08-22T08:19:11.061Z,30.95
2016-08-22T08:20:10.795Z,30.88
2016-08-22T08:21:10.569Z,30.73
2016-08-22T08:22:11.339Z,30.62
2016-08-22T08:23:10.600Z,30.57
2016-08-22T08:24:10.601Z,30.55
2016-08-22T08:25:10.619Z,30.53
2016-08-22T08:26:10.634Z,30.45
2016-08-22T08:27:10.645Z,30.62
2016-08-22T08:28:10.659Z,30.62
2016-08-22T08:29:10.683Z,30.47
2016-08-22T08:30:10.678Z,30.32
2016-08-22T08:31:10.687Z,30.19
2016-08-22T08:32:10.700Z,30.01
2016-08-22T08:33:10.713Z,29.89
2016-08-22T08:34:10.726Z,29.82
2016-08-22T08:35:10.731Z,29.76
2016-08-22T08:36:10.740Z,29.73
2016-08-22T08:37:10.750Z,29.45
2016-08-22T08:38:10.762Z,29.05
2016-08-22T08:39:10.780Z,28.56
2016-08-22T08:40:10.790Z,28.31
2016-08-22T08:41:10.801Z,28.12
2016-08-22T08:42:10.805Z,27.77
2016-08-22T08:43:10.818Z,27.72
2016-08-22T08:44:10.833Z,27.63
2016-08-22T08:45:10.851Z,27.59
2016-08-22T08:46:10.845Z,27.51
2016-08-22T08:47:10.855Z,27.54
2016-08-22T08:48:10.873Z,27.41
2016-08-22T08:49:10.874Z,27.28
2016-08-22T08:50:10.873Z,27.28
2016-08-22T08:51:10.889Z,27.37
2016-08-22T08:52:11.188Z,27.4
2016-08-22T08:53:10.906Z,27.32
2016-08-22T08:54:10.910Z,27.1
2016-08-22T08:55:10.925Z,26.95
2016-08-22T08:56:10.932Z,26.63
2016-08-22T08:57:10.930Z,26.45
2016-08-22T08:58:10.946Z,26.39
2016-08-22T08:59:10.957Z,26.37
2016-08-22T09:00:10.958Z,26.29
2016-08-22T09:01:10.969Z,26.06
2016-08-22T09:02:10.974Z,26.02
2016-08-22T09:03:10.982Z,25.91
2016-08-22T09:04:10.991Z,25.87
2016-08-22T09:05:10.997Z,25.64
2016-08-22T09:06:11.004Z,25.6
2016-08-22T09:07:11.007Z,25.7
2016-08-22T09:08:11.017Z,25.7
2016-08-22T09:09:11.018Z,25.87
2016-08-22T09:10:11.028Z,25.97
2016-08-22T09:11:11.036Z,26.09
2016-08-22T09:12:11.041Z,26.25
2016-08-22T09:13:11.056Z,26.4
2016-08-22T09:14:11.054Z,26.55
2016-08-22T09:15:11.065Z,26.55
2016-08-22T09:16:11.073Z,26.57
2016-08-22T09:17:11.075Z,26.63
2016-08-22T09:18:11.086Z,26.62
2016-08-22T09:19:11.648Z,26.62
2016-08-22T09:20:11.444Z,26.47
2016-08-22T09:21:12.309Z,26.39
2016-08-22T09:22:11.406Z,26.39
2016-08-22T09:23:14.930Z,26.43
2016-08-22T09:24:12.700Z,26.55
2016-08-22T09:25:11.131Z,26.6
2016-08-22T09:26:11.132Z,26.7
2016-08-22T09:27:11.138Z,26.72
2016-08-22T09:28:11.893Z,26.66
2016-08-22T09:29:11.810Z,26.69
2016-08-22T09:30:12.820Z,26.67
2016-08-22T09:31:12.078Z,26.62
2016-08-22T09:32:13.938Z,26.66
2016-08-22T09:33:12.044Z,26.63
2016-08-22T09:34:13.940Z,26.72
2016-08-22T09:35:11.191Z,26.69
2016-08-22T09:36:11.190Z,26.55
2016-08-22T09:37:11.471Z,26.44
2016-08-22T09:38:11.721Z,26.2
2016-08-22T09:39:11.308Z,26.1
2016-08-22T09:40:11.216Z,25.87
2016-08-22T09:41:11.221Z,25.75
2016-08-22T09:42:11.227Z,25.64
2016-08-22T09:43:11.238Z,25.55
2016-08-22T09:44:11.238Z,25.45
2016-08-22T09:45:11.251Z,25.32
2016-08-22T09:46:11.253Z,25.36
2016-08-22T09:47:11.257Z,25.15
2016-08-22T09:48:11.268Z,25.1
2016-08-22T09:49:11.274Z,25.08
2016-08-22T09:50:11.289Z,24.99
2016-08-22T09:51:11.281Z,24.91
2016-08-22T09:52:11.288Z,24.85
2016-08-22T09:53:11.291Z,24.83
2016-08-22T09:54:11.998Z,24.68
2016-08-22T09:55:11.302Z,24.62
2016-08-22T09:56:11.306Z,24.45
2016-08-22T09:57:11.313Z,24.34
2016-08-22T09:58:11.321Z,24.3
2016-08-22T09:59:11.328Z,24.35
2016-08-22T10:00:11.327Z,24.31
2016-08-22T10:01:11.325Z,24.47
2016-08-22T10:02:11.334Z,24.5
2016-08-22T10:03:11.336Z,24.5
2016-08-22T10:04:11.351Z,24.62
2016-08-22T10:05:11.347Z,24.6
2016-08-22T10:06:11.353Z,24.65
2016-08-22T10:07:11.360Z,24.61
2016-08-22T10:08:11.364Z,24.55
2016-08-22T10:09:11.363Z,24.6
2016-08-22T10:10:11.370Z,24.61
2016-08-22T10:11:11.369Z,24.55
2016-08-22T10:12:11.380Z,24.49
2016-08-22T10:13:11.377Z,24.6
2016-08-22T10:14:11.381Z,24.81
2016-08-22T10:15:11.389Z,24.87
2016-08-22T10:16:11.391Z,25.02
2016-08-22T10:17:11.408Z,25.17
2016-08-22T10:18:11.406Z,25.33
2016-08-22T10:19:11.400Z,25.52
2016-08-22T10:20:11.412Z,25.61
2016-08-22T10:21:11.413Z,25.65
2016-08-22T10:22:11.417Z,25.69
2016-08-22T10:23:11.423Z,25.6
2016-08-22T10:24:11.430Z,25.32
2016-08-22T10:25:11.431Z,25.2
2016-08-22T10:26:11.443Z,25.09
2016-08-22T10:27:11.442Z,24.95
2016-08-22T10:28:11.454Z,24.87
2016-08-22T10:29:11.451Z,24.78
2016-08-22T10:30:11.460Z,24.84
2016-08-22T10:31:11.464Z,24.84
2016-08-22T10:32:11.466Z,24.84
2016-08-22T10:33:11.469Z,24.78
2016-08-22T10:34:11.475Z,24.83
2016-08-22T10:35:11.474Z,24.85
2016-08-22T10:36:11.485Z,25.05
2016-08-22T10:37:12.499Z,24.98
2016-08-22T10:38:11.700Z,24.93
2016-08-22T10:39:11.500Z,24.99
2016-08-22T10:40:11.501Z,24.99
2016-08-22T10:41:13.022Z,25.06
2016-08-22T10:42:13.689Z,25.05
2016-08-22T10:43:12.723Z,25.13
2016-08-22T10:44:11.519Z,25.2
2016-08-22T10:45:13.081Z,25.25
2016-08-22T10:46:12.173Z,25.17
2016-08-22T10:47:12.071Z,25.2
2016-08-22T10:48:11.656Z,25.13
2016-08-22T10:49:11.539Z,25.05
2016-08-22T10:51:13.328Z,24.95
2016-08-22T10:52:12.294Z,24.85
2016-08-22T10:53:11.559Z,24.83
2016-08-22T10:54:13.178Z,24.76
2016-08-22T10:55:12.143Z,24.69
2016-08-22T10:56:11.569Z,24.69
2016-08-22T10:57:11.572Z,24.55
2016-08-22T10:58:11.582Z,24.55
2016-08-22T10:59:11.583Z,24.52
2016-08-22T11:00:11.583Z,24.52
2016-08-22T11:01:11.585Z,24.52
2016-08-22T11:02:11.596Z,24.6
2016-08-22T11:03:11.603Z,24.49
2016-08-22T11:04:11.600Z,24.52
2016-08-22T11:05:11.603Z,24.55
2016-08-22T11:06:11.616Z,24.47
2016-08-22T11:07:11.608Z,24.52
2016-08-22T11:08:11.612Z,24.49
2016-08-22T11:09:11.621Z,24.5
2016-08-22T11:10:11.623Z,24.52
2016-08-22T11:11:11.645Z,24.52
2016-08-22T11:12:11.631Z,24.57
2016-08-22T11:13:11.634Z,24.53
2016-08-22T11:14:11.638Z,24.5
2016-08-22T11:15:11.646Z,24.53
2016-08-22T11:16:11.645Z,24.65
2016-08-22T11:17:11.651Z,24.6
2016-08-22T11:18:11.653Z,24.67
2016-08-22T11:19:11.656Z,24.61
2016-08-22T11:20:11.659Z,24.69
2016-08-22T11:21:11.661Z,24.67
2016-08-22T11:22:11.678Z,24.64
2016-08-22T11:23:11.674Z,24.62
2016-08-22T11:24:11.671Z,24.62
2016-08-22T11:25:11.682Z,24.55
2016-08-22T11:26:11.691Z,24.46
2016-08-22T11:27:11.684Z,24.45
2016-08-22T11:28:11.686Z,24.4
2016-08-22T11:29:12.400Z,24.34
2016-08-22T11:30:11.691Z,24.25
2016-08-22T11:31:11.706Z,24.28
2016-08-22T11:32:11.707Z,24.18
2016-08-22T11:33:11.711Z,24.2
2016-08-22T11:34:11.721Z,24.15
2016-08-22T11:35:11.716Z,24.24
2016-08-22T11:36:11.719Z,24.16
2016-08-22T11:37:11.740Z,24.12
2016-08-22T11:38:11.724Z,24.2
2016-08-22T11:39:11.724Z,24.21
2016-08-22T11:40:11.733Z,24.31
2016-08-22T11:41:11.745Z,24.32
2016-08-22T11:42:11.740Z,24.43
2016-08-22T11:43:11.747Z,24.34
2016-08-22T11:44:11.746Z,24.39
2016-08-22T11:45:11.757Z,24.32
2016-08-22T11:46:11.753Z,24.31
2016-08-22T11:47:11.756Z,24.3
2016-08-22T11:48:11.761Z,24.31
2016-08-22T11:49:11.763Z,24.28
2016-08-22T11:50:11.770Z,24.37
2016-08-22T11:51:11.770Z,24.43
2016-08-22T11:52:11.776Z,24.42
2016-08-22T11:53:11.782Z,24.46
2016-08-22T11:54:11.790Z,24.47
2016-08-22T11:55:11.938Z,24.5
2016-08-22T11:56:12.389Z,24.53
2016-08-22T11:57:11.796Z,24.46
2016-08-22T11:58:11.794Z,24.52
2016-08-22T11:59:13.302Z,24.65
2016-08-22T12:01:13.093Z,24.67
2016-08-22T12:02:13.886Z,24.8
2016-08-22T12:03:11.817Z,24.71
2016-08-22T12:04:14.055Z,24.71
2016-08-22T12:05:14.113Z,24.78
2016-08-22T12:06:12.325Z,24.85
2016-08-22T12:07:12.432Z,24.95
2016-08-22T12:08:12.063Z,24.98
2016-08-22T12:09:13.446Z,24.93
2016-08-22T12:10:12.681Z,24.91
2016-08-22T12:11:13.800Z,24.95
2016-08-22T12:12:11.844Z,25.05
2016-08-22T12:13:11.847Z,25.1
2016-08-22T12:14:11.851Z,25.17
2016-08-22T12:15:11.940Z,25.15
2016-08-22T12:16:11.862Z,25.23
2016-08-22T12:17:11.860Z,25.2
2016-08-22T12:18:11.869Z,25.23
2016-08-22T12:19:11.870Z,25.2
2016-08-22T12:20:11.868Z,25.2
2016-08-22T12:21:11.878Z,25.4
2016-08-22T12:22:11.883Z,25.35
2016-08-22T12:23:11.884Z,25.42
2016-08-22T12:24:11.889Z,25.5
2016-08-22T12:25:11.895Z,25.5
2016-08-22T12:26:11.902Z,25.46
2016-08-22T12:27:11.910Z,25.43
2016-08-22T12:28:11.908Z,25.57
2016-08-22T12:29:11.908Z,25.58
2016-08-22T12:30:11.912Z,25.72
2016-08-22T12:31:11.919Z,25.72
2016-08-22T12:32:11.921Z,25.8
2016-08-22T12:33:11.931Z,25.87
2016-08-22T12:34:11.942Z,25.82
2016-08-22T12:35:11.936Z,26.02
2016-08-22T12:36:11.944Z,25.91
2016-08-22T12:37:11.939Z,25.87
2016-08-22T12:38:11.949Z,25.91
2016-08-22T12:39:11.952Z,25.9
2016-08-22T12:40:11.961Z,25.87
2016-08-22T12:41:11.963Z,25.92
2016-08-22T12:42:11.968Z,25.8
2016-08-22T12:43:11.966Z,25.9
2016-08-22T12:44:11.976Z,25.88
2016-08-22T12:45:11.978Z,25.85
2016-08-22T12:46:11.988Z,25.83
2016-08-22T12:47:11.988Z,25.79
2016-08-22T12:48:11.990Z,25.82
2016-08-22T12:49:12.008Z,25.76
2016-08-22T12:50:12.006Z,25.64
2016-08-22T12:51:12.020Z,25.65
2016-08-22T12:52:12.005Z,25.58
2016-08-22T12:53:12.014Z,25.57
2016-08-22T12:54:12.019Z,25.47
2016-08-22T12:55:12.024Z,25.32
2016-08-22T12:56:12.030Z,25.2
2016-08-22T12:57:12.040Z,25.23
2016-08-22T12:58:12.038Z,25.2
2016-08-22T12:59:12.040Z,25.24
2016-08-22T13:00:12.043Z,25.21
2016-08-22T13:01:12.042Z,25.36
2016-08-22T13:02:12.048Z,25.32
2016-08-22T13:03:12.062Z,25.39
2016-08-22T13:04:12.062Z,25.38
2016-08-22T13:05:12.075Z,25.39
2016-08-22T13:06:12.065Z,25.5
2016-08-22T13:07:12.074Z,25.55
2016-08-22T13:08:12.073Z,25.61
2016-08-22T13:09:12.076Z,25.62
2016-08-22T13:10:12.081Z,25.7
2016-08-22T13:11:12.089Z,25.73
2016-08-22T13:12:12.084Z,25.82
2016-08-22T13:13:12.656Z,25.8
2016-08-22T13:14:12.102Z,25.8
2016-08-22T13:15:13.051Z,25.77
2016-08-22T13:16:12.610Z,25.83
2016-08-22T13:17:12.110Z,25.9